Guymon Municipal Airport
KGUY : rendu visible

Aérodrome :











RETROUVEZ-NOUS SUR...

 
LOGIN :

S'inscrire | Disclaimer

   EN    FR    IT 

 









Légende :    VFR   VFR Marginal   IFR   IFR Intensif   IFR Très Intensif
Visi : 
Plafond : 
>= 8 km
>= 3000ft
5 à 8 km
1000 à 3000 ft
1500m à 5 km
500 à 1000 ft
800 à 1500m
200 à 500 ft
< 800m
< 200 ft
Symboles :   Orages  Brouillard  Fortes neiges  Fortes précipitations  Vent > 20 kt






- Altitude de l'aérodrome : 3123 ft


KGUY - Guymon Municipal

DERNIER METAR :
  • 282253Z AUTO 21003KT 10SM -RA BKN023 OVC031 03/02 A3015 RMK AO2 RAE02B27 SLP216 P0000 T00280022

METARs EXPIRÉS :
  • 282153Z AUTO 20006KT 10SM -RA FEW009 BKN027 OVC032 03/03 A3016 RMK AO2 RAB08 SLP219 P0000 T00330028
  • 282143Z AUTO 19005KT 10SM -RA BKN029 OVC044 03/03 A3016 RMK AO2 RAB08 P0000 T00330028
  • 282053Z AUTO 21008KT 10SM BKN036 OVC049 03/03 A3016 RMK AO2 RAE53 SLP223 P0003 60027 T00330028 58025
  • 282011Z AUTO 22007KT 10SM -RA FEW024 OVC034 02/02 A3018 RMK AO2 P0000 T00220017

TAF KGUY
Valide du 28 à 18h jusqu'au 29 à 18h UTC


281725Z 2818/2918 22009KT P6SM VCSH OVC090
FM290100 18005KT P6SM VCSH OVC020
FM291000 28005KT P6SM BKN016
FM291200 32008KT P6SM SCT030
FM291500 35020G28KT P6SM FEW250
FIR KZKC / Amérique du Nord



MET'MAP, la Météo Aéronautique d'un coup d'oeil ! - Copyright ORBIFLY Décembre 2007 - Disclaimer

ORBIFLY MET'MAP TEAM :

Programmation & Développement : Alexandra Zaïnal
Sur une idée originale de : Baudouin d'Aumeries
Assistance à la programmation : Marc-Olivier Méhu
Soutien technique & logistique : Manuel Goepfert

Contact : metmap@orbifly.com




SOURCES & CREDITS :

   NOAA       Earth
Advisory